createdAt,value
2019-02-02T00:04:04.719Z,2.12
2019-02-02T00:09:00.616Z,1.74
2019-02-02T00:13:56.545Z,1.73
2019-02-02T00:18:52.551Z,1.67
2019-02-02T00:24:09.050Z,1.55
2019-02-02T00:29:05.316Z,1.50
2019-02-02T00:34:01.301Z,1.59
2019-02-02T00:38:57.201Z,1.64
2019-02-02T00:43:53.118Z,1.41
2019-02-02T00:48:48.989Z,1.80
2019-02-02T00:53:45.790Z,1.81
2019-02-02T00:58:41.786Z,1.78
2019-02-02T01:03:37.774Z,1.69
2019-02-02T01:08:33.672Z,1.93
2019-02-02T01:13:29.609Z,2.01
2019-02-02T01:18:25.510Z,2.14
2019-02-02T01:23:21.408Z,2.15
2019-02-02T01:28:17.400Z,2.09
2019-02-02T01:33:13.318Z,2.20
2019-02-02T01:38:29.096Z,2.12
2019-02-02T01:43:25.097Z,2.12
2019-02-02T01:48:21.094Z,2.06
2019-02-02T01:53:16.993Z,2.18
2019-02-02T01:58:16.854Z,1.97
2019-02-02T02:03:11.000Z,2.06
2019-02-02T02:08:06.895Z,1.82
2019-02-02T02:13:44.482Z,1.84
2019-02-02T02:18:40.384Z,1.76
2019-02-02T02:23:37.339Z,2.04
2019-02-02T02:28:33.365Z,1.85
2019-02-02T02:33:29.269Z,1.66
2019-02-02T02:38:25.165Z,1.78
2019-02-02T02:43:21.081Z,1.61
2019-02-02T02:48:16.969Z,1.72
2019-02-02T02:53:13.045Z,1.67
2019-02-02T02:58:08.943Z,1.68
2019-02-02T03:03:04.952Z,1.67
2019-02-02T03:08:00.846Z,1.80
2019-02-02T03:12:56.751Z,1.76
2019-02-02T03:18:34.342Z,1.49
2019-02-02T03:23:31.561Z,1.65
2019-02-02T03:28:27.461Z,1.57
2019-02-02T03:33:23.444Z,1.62
2019-02-02T03:38:19.338Z,1.66
2019-02-02T03:43:15.344Z,1.74
2019-02-02T03:48:11.244Z,1.76
2019-02-02T03:53:07.130Z,1.97
2019-02-02T03:58:03.224Z,1.96
2019-02-02T04:02:59.143Z,2.02
2019-02-02T04:07:55.362Z,2.03
2019-02-02T04:12:51.261Z,2.04
2019-02-02T04:17:47.288Z,2.13
2019-02-02T04:22:43.386Z,2.23
2019-02-02T04:27:39.389Z,2.21
2019-02-02T04:32:35.384Z,2.23
2019-02-02T04:37:31.288Z,2.21
2019-02-02T04:42:27.200Z,2.31
2019-02-02T04:47:23.076Z,2.30
2019-02-02T04:52:19.106Z,2.29
2019-02-02T04:57:14.986Z,2.15
2019-02-02T05:02:10.885Z,2.28
2019-02-02T05:07:06.874Z,2.19
2019-02-02T05:12:03.016Z,2.10
2019-02-02T05:16:58.905Z,2.26
2019-02-02T05:21:54.816Z,2.13
2019-02-02T05:26:50.725Z,2.15
2019-02-02T05:31:46.645Z,2.15
2019-02-02T05:36:42.753Z,2.18
2019-02-02T05:41:38.641Z,2.12
2019-02-02T05:46:34.526Z,1.97
2019-02-02T05:51:30.517Z,2.07
2019-02-02T05:56:26.535Z,2.10
2019-02-02T06:01:22.544Z,2.04
2019-02-02T06:06:18.419Z,2.01
2019-02-02T06:11:14.312Z,1.98
2019-02-02T06:16:10.197Z,1.91
2019-02-02T06:21:06.092Z,2.01
2019-02-02T06:26:01.986Z,1.96
2019-02-02T06:31:00.128Z,1.83
2019-02-02T06:35:55.779Z,1.91
2019-02-02T06:40:51.688Z,1.85
2019-02-02T06:45:47.584Z,1.86
2019-02-02T06:50:43.474Z,1.79
2019-02-02T06:55:39.461Z,1.70
2019-02-02T07:00:35.365Z,1.65
2019-02-02T07:05:33.749Z,1.62
2019-02-02T07:10:29.164Z,1.57
2019-02-02T07:15:27.024Z,1.66
2019-02-02T07:20:23.023Z,1.58
2019-02-02T07:25:19.067Z,1.70
2019-02-02T07:30:28.210Z,1.69
2019-02-02T07:35:15.439Z,1.73
2019-02-02T07:40:14.541Z,1.69
2019-02-02T07:45:19.012Z,1.78
2019-02-02T07:50:15.901Z,1.75
2019-02-02T07:55:14.197Z,1.81
2019-02-02T08:00:16.657Z,1.56
2019-02-02T08:05:12.813Z,1.59
2019-02-02T08:10:11.186Z,1.54
2019-02-02T08:15:10.609Z,1.63
2019-02-02T08:20:09.989Z,1.68
2019-02-02T08:25:09.217Z,1.89
2019-02-02T08:30:12.166Z,1.91
2019-02-02T08:35:08.552Z,2.00
2019-02-02T08:40:08.160Z,1.93
2019-02-02T08:45:06.558Z,1.93
2019-02-02T08:50:06.273Z,1.91
2019-02-02T08:55:03.382Z,1.98
2019-02-02T08:59:59.870Z,2.06
2019-02-02T09:04:56.003Z,1.84
2019-02-02T09:09:52.001Z,1.93
2019-02-02T09:14:47.908Z,1.46
2019-02-02T09:19:43.811Z,1.70
2019-02-02T09:24:40.426Z,1.78
2019-02-02T09:29:36.281Z,1.85
2019-02-02T09:34:32.169Z,1.60
2019-02-02T09:39:28.059Z,1.72
2019-02-02T09:44:23.948Z,1.86
2019-02-02T09:49:19.837Z,2.02
2019-02-02T09:54:26.353Z,2.04
2019-02-02T09:59:14.113Z,1.84
2019-02-02T10:04:10.129Z,1.88
2019-02-02T10:09:06.524Z,1.75
2019-02-02T10:14:03.375Z,1.58
2019-02-02T10:18:59.819Z,1.60
2019-02-02T10:23:58.226Z,1.96
2019-02-02T10:28:54.219Z,1.77
2019-02-02T10:33:50.378Z,1.95
2019-02-02T10:38:46.284Z,1.95
2019-02-02T10:43:49.404Z,1.98
2019-02-02T10:48:45.292Z,1.93
2019-02-02T10:53:41.200Z,2.00
2019-02-02T10:58:38.087Z,2.06
2019-02-02T11:03:33.982Z,1.93
2019-02-02T11:08:29.930Z,2.09
2019-02-02T11:13:26.044Z,2.29
2019-02-02T11:18:22.128Z,2.32
2019-02-02T11:23:18.222Z,2.46
2019-02-02T11:28:14.213Z,1.92
2019-02-02T11:33:10.220Z,1.98
2019-02-02T11:38:06.259Z,1.90
2019-02-02T11:43:02.461Z,2.10
2019-02-02T11:47:58.356Z,1.98
2019-02-02T11:52:54.337Z,2.12
2019-02-02T11:57:50.311Z,2.10
2019-02-02T12:02:49.467Z,2.26
2019-02-02T12:07:44.031Z,2.21
2019-02-02T12:12:42.130Z,2.50
2019-02-02T12:17:37.806Z,2.92
2019-02-02T12:22:33.716Z,3.01
2019-02-02T12:27:29.605Z,3.06
2019-02-02T12:32:47.207Z,2.59
2019-02-02T12:38:25.052Z,2.34
2019-02-02T12:48:45.797Z,2.46
2019-02-02T12:53:42.429Z,2.62
2019-02-02T12:58:39.131Z,2.23
2019-02-02T13:03:35.914Z,2.38
2019-02-02T13:08:32.716Z,2.25
2019-02-02T13:13:28.655Z,2.15
2019-02-02T13:18:24.543Z,1.92
2019-02-02T13:23:20.448Z,2.19
2019-02-02T13:28:16.340Z,2.24
2019-02-02T13:33:12.231Z,2.47
2019-02-02T13:38:08.221Z,2.52
2019-02-02T13:43:04.822Z,2.56
2019-02-02T13:48:00.680Z,2.61
2019-02-02T13:52:56.593Z,2.63
2019-02-02T13:57:52.575Z,2.20
2019-02-02T14:03:01.592Z,2.23
2019-02-02T14:07:46.961Z,2.26
2019-02-02T14:12:42.875Z,2.09
2019-02-02T14:17:38.761Z,1.91
2019-02-02T14:22:34.653Z,1.85
2019-02-02T14:27:30.546Z,2.00
2019-02-02T14:32:26.431Z,2.07
2019-02-02T14:37:22.319Z,1.99
2019-02-02T14:42:18.530Z,2.00
2019-02-02T14:47:17.353Z,1.98
2019-02-02T14:57:38.571Z,1.76
2019-02-02T15:02:35.374Z,1.72
2019-02-02T15:12:47.848Z,1.65
2019-02-02T15:17:44.816Z,1.67
2019-02-02T15:28:05.305Z,1.72
2019-02-02T15:33:01.304Z,1.60
2019-02-02T15:37:57.217Z,1.73
2019-02-02T15:42:54.140Z,1.60
2019-02-02T15:47:50.722Z,1.74
2019-02-02T15:52:46.708Z,1.92
2019-02-02T15:57:42.692Z,1.73
2019-02-02T16:02:39.447Z,1.83
2019-02-02T16:07:56.106Z,1.72
2019-02-02T16:12:52.806Z,1.88
2019-02-02T16:17:50.162Z,1.67
2019-02-02T16:33:25.749Z,1.61
2019-02-02T16:38:42.543Z,1.51
2019-02-02T16:43:39.451Z,1.50
2019-02-02T16:48:36.589Z,1.54
2019-02-02T16:54:14.719Z,1.63
2019-02-02T16:59:11.677Z,1.74
2019-02-02T17:04:15.358Z,1.79
2019-02-02T17:09:47.089Z,1.88
2019-02-02T17:14:42.998Z,1.78
2019-02-02T17:19:39.936Z,1.92
2019-02-02T17:24:36.527Z,1.92
2019-02-02T17:29:32.553Z,1.78
2019-02-02T17:34:28.522Z,1.78
2019-02-02T17:44:40.662Z,1.95
2019-02-02T17:49:36.900Z,1.99
2019-02-02T17:54:53.027Z,1.99
2019-02-02T17:59:50.306Z,1.96
2019-02-02T18:04:46.389Z,1.84
2019-02-02T18:10:03.515Z,1.97
2019-02-02T18:15:00.537Z,1.96
2019-02-02T18:20:19.047Z,1.88
2019-02-02T18:25:37.098Z,1.94
2019-02-02T18:36:12.609Z,1.93
2019-02-02T18:41:08.828Z,1.92
2019-02-02T18:46:04.951Z,2.00
2019-02-02T18:51:00.895Z,1.78
2019-02-02T18:56:38.899Z,1.80
2019-02-02T19:02:16.646Z,1.84
2019-02-02T19:07:13.947Z,1.78
2019-02-02T19:12:10.052Z,1.85
2019-02-02T19:17:06.384Z,1.79
2019-02-02T19:22:02.409Z,1.84
2019-02-02T19:26:58.389Z,1.77
2019-02-02T19:31:54.477Z,1.81
2019-02-02T19:36:50.461Z,1.80
2019-02-02T19:41:46.412Z,1.66
2019-02-02T19:47:02.905Z,1.60
2019-02-02T19:51:58.924Z,1.75
2019-02-02T19:56:54.820Z,1.64
2019-02-02T20:01:50.749Z,1.65
2019-02-02T20:06:46.753Z,1.53
2019-02-02T20:11:42.652Z,1.55
2019-02-02T20:16:38.567Z,1.57
2019-02-02T20:21:34.471Z,1.57
2019-02-02T20:26:30.438Z,1.56
2019-02-02T20:31:26.375Z,1.58
2019-02-02T20:36:22.312Z,1.51
2019-02-02T20:41:18.276Z,1.49
2019-02-02T20:46:14.302Z,1.46
2019-02-02T20:51:10.235Z,1.48
2019-02-02T20:56:06.366Z,1.50
2019-02-02T21:01:43.908Z,1.58
2019-02-02T21:06:39.928Z,1.57
2019-02-02T21:11:35.950Z,1.53
2019-02-02T21:16:31.887Z,1.54
2019-02-02T21:21:27.796Z,1.56
2019-02-02T21:26:25.606Z,1.61
2019-02-02T21:31:21.580Z,1.61
2019-02-02T21:36:17.530Z,1.56
2019-02-02T21:41:18.398Z,1.58
2019-02-02T21:46:13.347Z,1.65
2019-02-02T21:51:09.242Z,1.91
2019-02-02T21:56:13.789Z,1.91
2019-02-02T22:01:09.885Z,1.84
2019-02-02T22:11:09.851Z,1.95
2019-02-02T22:16:05.761Z,1.81
2019-02-02T22:21:01.768Z,2.23
2019-02-02T22:25:57.669Z,1.92
2019-02-02T22:30:53.564Z,1.66
2019-02-02T22:35:51.382Z,1.67
2019-02-02T22:40:47.537Z,1.59
2019-02-02T22:45:43.464Z,1.62
2019-02-02T22:50:41.301Z,1.62
2019-02-02T22:55:37.411Z,1.53
2019-02-02T23:01:13.699Z,1.47
2019-02-02T23:06:49.543Z,1.47
2019-02-02T23:12:25.849Z,1.51
2019-02-02T23:22:26.116Z,1.56
2019-02-02T23:32:38.348Z,1.45
2019-02-02T23:37:34.506Z,1.42
2019-02-02T23:42:30.408Z,1.40
2019-02-02T23:47:26.358Z,1.40
2019-02-02T23:52:22.266Z,1.32
2019-02-02T23:57:18.166Z,1.32
